createdAt,value
2023-05-17T00:00:54.741Z,55.01
2023-05-17T00:01:57.275Z,55.22
2023-05-17T00:02:59.687Z,55.30
2023-05-17T00:04:02.827Z,55.09
2023-05-17T00:05:06.014Z,55.15
2023-05-17T00:06:09.670Z,55.13
2023-05-17T00:07:12.158Z,55.32
2023-05-17T00:08:14.982Z,55.30
2023-05-17T00:09:17.367Z,55.22
2023-05-17T00:10:19.980Z,55.29
2023-05-17T00:11:23.441Z,55.25
2023-05-17T00:12:25.936Z,55.20
2023-05-17T00:13:28.524Z,55.07
2023-05-17T00:14:31.125Z,55.24
2023-05-17T00:15:34.421Z,55.40
2023-05-17T00:16:37.481Z,55.55
2023-05-17T00:17:40.169Z,55.50
2023-05-17T00:18:42.909Z,55.43
2023-05-17T00:19:45.735Z,55.48
2023-05-17T00:20:48.393Z,55.68
2023-05-17T00:21:50.792Z,55.72
2023-05-17T00:22:53.269Z,55.79
2023-05-17T00:23:55.808Z,55.87
2023-05-17T00:24:58.410Z,55.73
2023-05-17T00:26:01.175Z,55.91
2023-05-17T00:27:04.353Z,55.93
2023-05-17T00:28:06.788Z,56.17
2023-05-17T00:29:09.930Z,56.38
2023-05-17T00:30:14.045Z,56.20
2023-05-17T00:31:16.673Z,56.29
2023-05-17T00:32:19.896Z,56.46
2023-05-17T00:33:22.273Z,56.61
2023-05-17T00:34:24.656Z,56.79
2023-05-17T00:35:28.508Z,56.77
2023-05-17T00:36:31.269Z,56.83
2023-05-17T00:37:33.917Z,56.70
2023-05-17T00:38:36.792Z,56.70
2023-05-17T00:39:39.330Z,56.66
2023-05-17T00:40:42.337Z,56.48
2023-05-17T00:41:44.884Z,56.48
2023-05-17T00:42:47.552Z,56.50
2023-05-17T00:43:51.386Z,56.50
2023-05-17T00:44:53.936Z,56.62
2023-05-17T00:45:56.505Z,56.61
2023-05-17T00:47:01.040Z,56.61
2023-05-17T00:48:04.459Z,56.74
2023-05-17T00:49:07.156Z,56.68
2023-05-17T00:50:11.400Z,56.72
2023-05-17T00:51:15.969Z,56.78
2023-05-17T00:52:19.295Z,56.74
2023-05-17T00:53:22.565Z,56.86
2023-05-17T00:54:26.086Z,56.79
2023-05-17T00:55:29.402Z,56.82
2023-05-17T00:56:33.042Z,56.70
2023-05-17T00:57:37.192Z,56.54
2023-05-17T00:58:40.346Z,56.57
2023-05-17T00:59:44.491Z,56.60
2023-05-17T01:00:47.186Z,56.65
2023-05-17T01:01:51.072Z,56.62
2023-05-17T01:02:53.610Z,56.58
2023-05-17T01:03:57.201Z,56.54
2023-05-17T01:05:00.392Z,56.72
2023-05-17T01:06:05.973Z,56.79
2023-05-17T01:07:10.493Z,56.79
2023-05-17T01:08:13.752Z,56.68
2023-05-17T01:09:16.968Z,56.54
2023-05-17T01:10:19.823Z,56.68
2023-05-17T01:11:44.170Z,56.49
2023-05-17T01:12:50.710Z,56.74
2023-05-17T01:13:56.721Z,56.58
2023-05-17T01:15:12.277Z,56.53
2023-05-17T01:16:40.334Z,56.53
2023-05-17T01:18:04.978Z,56.38
2023-05-17T01:19:23.172Z,56.34
2023-05-17T01:20:38.246Z,56.35
2023-05-17T01:21:50.490Z,56.33
2023-05-17T01:23:21.972Z,56.21
2023-05-17T01:24:30.736Z,56.24
2023-05-17T01:25:57.848Z,56.11
2023-05-17T01:27:02.338Z,56.18
2023-05-17T01:28:07.613Z,56.01
2023-05-17T01:29:12.748Z,55.96
2023-05-17T01:30:17.835Z,56.01
2023-05-17T01:31:21.690Z,55.88
2023-05-17T01:32:25.393Z,55.97
2023-05-17T01:33:29.445Z,55.90
2023-05-17T01:34:32.148Z,55.68
2023-05-17T01:35:34.637Z,55.76
2023-05-17T01:36:37.224Z,55.79
2023-05-17T01:37:39.707Z,55.89
2023-05-17T01:38:42.182Z,55.90
2023-05-17T01:39:44.654Z,55.86
2023-05-17T01:40:56.582Z,55.75
2023-05-17T01:42:08.803Z,55.67
2023-05-17T01:43:44.187Z,55.71
2023-05-17T01:44:50.292Z,55.68
2023-05-17T01:46:15.151Z,55.59
2023-05-17T01:47:47.375Z,55.61
2023-05-17T01:50:07.003Z,55.70
2023-05-17T01:51:12.978Z,55.76
2023-05-17T01:52:31.240Z,55.64
2023-05-17T01:53:39.237Z,55.51
2023-05-17T01:54:48.772Z,55.52
2023-05-17T01:55:55.621Z,55.39
2023-05-17T01:57:01.575Z,55.61
2023-05-17T01:58:07.025Z,55.56
2023-05-17T01:59:12.805Z,55.33
2023-05-17T02:00:17.313Z,55.29
2023-05-17T02:01:22.540Z,55.38
2023-05-17T02:02:25.358Z,55.44
2023-05-17T02:03:29.006Z,55.34
2023-05-17T02:04:31.893Z,55.29
2023-05-17T02:05:36.193Z,55.30
2023-05-17T02:06:38.765Z,55.01
2023-05-17T02:07:41.324Z,55.19
2023-05-17T02:08:43.735Z,55.18
2023-05-17T02:09:46.504Z,55.40
2023-05-17T02:10:50.297Z,55.46
2023-05-17T02:11:53.622Z,55.33
2023-05-17T02:12:55.923Z,55.29
2023-05-17T02:13:58.331Z,55.45
2023-05-17T02:15:01.248Z,55.39
2023-05-17T02:16:04.067Z,55.39
2023-05-17T02:17:08.180Z,55.11
2023-05-17T02:18:11.341Z,55.19
2023-05-17T02:19:16.026Z,55.44
2023-05-17T02:20:20.507Z,55.42
2023-05-17T02:21:22.846Z,55.42
2023-05-17T02:22:25.207Z,55.59
2023-05-17T02:23:28.720Z,55.45
2023-05-17T02:24:31.667Z,55.18
2023-05-17T02:25:34.984Z,55.18
2023-05-17T02:26:37.765Z,55.67
2023-05-17T02:27:40.344Z,55.45
2023-05-17T02:28:43.765Z,55.35
2023-05-17T02:29:46.247Z,55.62
2023-05-17T02:30:48.913Z,55.72
2023-05-17T02:31:51.379Z,55.60
2023-05-17T02:32:56.269Z,55.75
2023-05-17T02:33:58.943Z,55.67
2023-05-17T02:35:01.412Z,55.76
2023-05-17T02:36:04.793Z,55.57
2023-05-17T02:37:08.457Z,55.78
2023-05-17T02:38:12.406Z,55.75
2023-05-17T02:39:16.837Z,55.62
2023-05-17T02:40:19.250Z,55.60
2023-05-17T02:41:21.610Z,55.58
2023-05-17T02:42:24.456Z,55.55
2023-05-17T02:43:27.001Z,55.66
2023-05-17T02:44:30.411Z,55.44
2023-05-17T02:45:33.030Z,55.65
2023-05-17T02:46:38.210Z,55.62
2023-05-17T02:47:40.614Z,55.38
2023-05-17T02:48:43.209Z,55.72
2023-05-17T02:49:45.602Z,55.56
2023-05-17T02:50:48.087Z,55.79
2023-05-17T02:51:50.559Z,55.60
2023-05-17T02:52:53.649Z,55.81
2023-05-17T02:53:56.122Z,55.73
2023-05-17T02:54:58.803Z,55.48
2023-05-17T02:56:01.517Z,55.34
2023-05-17T02:57:05.223Z,55.35
2023-05-17T02:58:07.762Z,55.40
2023-05-17T02:59:11.391Z,55.40
2023-05-17T03:00:16.213Z,55.43
2023-05-17T03:01:18.801Z,55.63
2023-05-17T03:02:21.408Z,55.19
2023-05-17T03:03:24.671Z,55.19
2023-05-17T03:04:27.143Z,55.40
2023-05-17T03:05:31.681Z,55.26
2023-05-17T03:06:34.620Z,55.55
2023-05-17T03:07:37.777Z,55.08
2023-05-17T03:08:40.433Z,55.63
2023-05-17T03:09:44.091Z,55.58
2023-05-17T03:10:48.366Z,55.96
2023-05-17T03:11:51.255Z,56.17
2023-05-17T03:12:56.605Z,56.40
2023-05-17T03:14:01.030Z,56.35
2023-05-17T03:15:06.287Z,56.49
2023-05-17T03:16:10.183Z,56.38
2023-05-17T03:17:13.758Z,56.15
2023-05-17T03:18:16.766Z,56.28
2023-05-17T03:19:20.002Z,56.42
2023-05-17T03:20:24.195Z,56.02
2023-05-17T03:21:26.707Z,56.25
2023-05-17T03:22:29.281Z,56.03
2023-05-17T03:23:34.942Z,56.09
2023-05-17T03:24:38.407Z,56.38
2023-05-17T03:25:41.085Z,56.20
2023-05-17T03:26:45.772Z,56.44
2023-05-17T03:27:48.855Z,56.53
2023-05-17T03:28:51.296Z,56.28
2023-05-17T03:29:55.270Z,56.51
2023-05-17T03:30:59.629Z,56.55
2023-05-17T03:32:04.828Z,56.42
2023-05-17T03:33:07.574Z,56.76
2023-05-17T03:34:11.551Z,56.59
2023-05-17T03:35:14.319Z,56.68
2023-05-17T03:36:19.758Z,56.84
2023-05-17T03:37:22.778Z,56.73
2023-05-17T03:38:26.070Z,56.69
2023-05-17T03:39:28.807Z,56.85
2023-05-17T03:40:31.440Z,56.80
2023-05-17T03:41:34.776Z,56.70
2023-05-17T03:42:38.541Z,56.93
2023-05-17T03:43:42.442Z,57.19
2023-05-17T03:44:46.855Z,57.11
2023-05-17T03:45:49.388Z,56.92
2023-05-17T03:46:53.253Z,57.37
2023-05-17T03:47:56.904Z,57.38
2023-05-17T03:49:00.827Z,57.87
2023-05-17T03:50:05.962Z,58.08
2023-05-17T03:51:09.745Z,57.68
2023-05-17T03:52:12.180Z,57.57
2023-05-17T03:53:14.989Z,57.55
2023-05-17T03:54:18.277Z,57.67
2023-05-17T03:55:21.226Z,57.45
2023-05-17T03:56:25.427Z,57.70
2023-05-17T03:57:28.466Z,57.83
2023-05-17T03:58:31.803Z,57.54
2023-05-17T03:59:34.200Z,57.87
2023-05-17T04:00:37.414Z,57.70
2023-05-17T04:01:43.243Z,57.76
2023-05-17T04:02:46.105Z,57.67
2023-05-17T04:03:49.590Z,57.68
2023-05-17T04:04:52.631Z,57.89
2023-05-17T04:06:05.537Z,57.84
2023-05-17T04:07:09.987Z,57.62
2023-05-17T04:08:12.669Z,57.85
2023-05-17T04:09:14.962Z,57.73
2023-05-17T04:10:18.613Z,57.77
2023-05-17T04:11:23.219Z,57.90
2023-05-17T04:12:26.091Z,57.50
2023-05-17T04:13:29.028Z,57.78
2023-05-17T04:14:31.336Z,57.62
2023-05-17T04:15:34.366Z,57.59
2023-05-17T04:16:37.878Z,57.58
2023-05-17T04:17:40.885Z,57.42
2023-05-17T04:18:45.158Z,57.09
2023-05-17T04:19:48.230Z,56.99
2023-05-17T04:20:51.878Z,57.10
2023-05-17T04:21:54.802Z,57.06
2023-05-17T04:22:58.568Z,56.90
2023-05-17T04:24:01.943Z,56.99
2023-05-17T04:25:05.003Z,56.99
2023-05-17T04:26:09.480Z,57.05
2023-05-17T04:27:13.969Z,56.82
2023-05-17T04:28:17.007Z,56.94
2023-05-17T04:29:20.765Z,57.15
2023-05-17T04:30:23.589Z,56.96
2023-05-17T04:31:26.157Z,56.71
2023-05-17T04:32:28.976Z,56.50
2023-05-17T04:33:31.972Z,56.56
2023-05-17T04:34:34.627Z,56.80
2023-05-17T04:35:38.778Z,56.80
2023-05-17T04:36:41.937Z,56.78
2023-05-17T04:37:45.179Z,56.89
2023-05-17T04:38:49.776Z,56.70
2023-05-17T04:39:54.333Z,56.62
2023-05-17T04:41:07.539Z,56.42
2023-05-17T04:42:11.972Z,56.45
2023-05-17T04:43:16.293Z,56.38
2023-05-17T04:44:18.773Z,56.27
2023-05-17T04:45:21.772Z,56.18
2023-05-17T04:46:27.214Z,56.02
2023-05-17T04:47:30.184Z,56.02
2023-05-17T04:48:33.168Z,55.84
2023-05-17T04:49:36.792Z,55.80
2023-05-17T04:50:39.317Z,55.93
2023-05-17T04:51:41.788Z,55.71
2023-05-17T04:52:47.018Z,55.30
2023-05-17T04:53:49.794Z,55.35
2023-05-17T04:54:53.600Z,55.11
2023-05-17T04:55:57.125Z,55.14
2023-05-17T04:57:00.207Z,55.23
2023-05-17T04:58:16.272Z,55.15
2023-05-17T04:59:19.608Z,55.04
2023-05-17T05:00:23.339Z,54.82
2023-05-17T05:01:28.928Z,54.72
2023-05-17T05:02:32.220Z,54.63
2023-05-17T05:03:36.150Z,54.50
2023-05-17T05:04:40.038Z,54.35
2023-05-17T05:05:43.461Z,54.59
2023-05-17T05:06:46.746Z,54.54
2023-05-17T05:07:50.541Z,54.45
2023-05-17T05:08:53.286Z,54.46
2023-05-17T05:09:55.933Z,54.41
2023-05-17T05:10:59.539Z,54.56
2023-05-17T05:12:04.226Z,54.16
2023-05-17T05:13:06.657Z,54.05
2023-05-17T05:14:09.270Z,54.08
2023-05-17T05:15:12.226Z,53.94
2023-05-17T05:16:17.385Z,53.71
2023-05-17T05:17:20.411Z,53.93
2023-05-17T05:18:23.646Z,54.09
2023-05-17T05:19:26.479Z,53.96
2023-05-17T05:20:31.556Z,53.87
2023-05-17T05:21:34.291Z,53.49
2023-05-17T05:22:36.864Z,53.67
2023-05-17T05:23:39.414Z,53.67
2023-05-17T05:24:44.853Z,53.21
2023-05-17T05:25:48.261Z,53.38
2023-05-17T05:26:51.227Z,53.42
2023-05-17T05:27:54.502Z,53.35
2023-05-17T05:28:57.887Z,52.92
2023-05-17T05:30:01.376Z,52.88
2023-05-17T05:31:04.475Z,52.76
2023-05-17T05:32:08.916Z,52.65
2023-05-17T05:33:13.860Z,52.59
2023-05-17T05:34:16.974Z,52.38
2023-05-17T05:35:22.711Z,52.08
2023-05-17T05:36:25.478Z,52.20
2023-05-17T05:37:29.535Z,52.22
2023-05-17T05:38:31.983Z,51.80
2023-05-17T05:39:34.886Z,51.54
2023-05-17T05:40:39.651Z,51.66
2023-05-17T05:41:43.391Z,51.38
2023-05-17T05:42:45.917Z,51.29
2023-05-17T05:43:48.219Z,51.15
2023-05-17T05:44:50.628Z,50.91
2023-05-17T05:45:53.483Z,50.70
2023-05-17T05:46:58.391Z,50.84
2023-05-17T05:48:01.274Z,50.87
2023-05-17T05:49:04.401Z,50.98
2023-05-17T05:50:08.979Z,51.11
2023-05-17T05:51:12.013Z,50.97
2023-05-17T05:52:16.506Z,50.67
2023-05-17T05:53:20.033Z,50.53
2023-05-17T05:54:30.753Z,50.23
2023-05-17T05:55:33.606Z,49.87
2023-05-17T05:56:36.130Z,49.49
2023-05-17T05:57:38.737Z,49.21
2023-05-17T05:58:42.374Z,49.10
2023-05-17T05:59:45.617Z,48.90
2023-05-17T06:00:48.295Z,48.85
2023-05-17T06:01:53.413Z,48.77
2023-05-17T06:02:56.870Z,48.48
2023-05-17T06:03:59.994Z,48.99
2023-05-17T06:05:03.219Z,48.70
2023-05-17T06:06:07.465Z,48.61
2023-05-17T06:07:10.358Z,48.46
2023-05-17T06:08:12.909Z,48.35
2023-05-17T06:09:16.198Z,48.19
2023-05-17T06:10:19.143Z,48.03
2023-05-17T06:11:23.317Z,48.03
2023-05-17T06:12:25.890Z,48.39
2023-05-17T06:13:29.592Z,48.60
2023-05-17T06:14:32.539Z,48.06
2023-05-17T06:15:36.305Z,47.79
2023-05-17T06:16:39.034Z,47.90
2023-05-17T06:17:41.427Z,47.85
2023-05-17T06:18:44.018Z,47.64
2023-05-17T06:19:48.305Z,47.12
2023-05-17T06:20:51.534Z,46.82
2023-05-17T06:21:54.348Z,47.01
2023-05-17T06:22:57.037Z,46.68
2023-05-17T06:23:59.406Z,46.61
2023-05-17T06:25:02.018Z,46.24
2023-05-17T06:26:07.528Z,46.23
2023-05-17T06:27:10.140Z,46.18
2023-05-17T06:28:12.608Z,46.45
2023-05-17T06:29:15.246Z,46.04
2023-05-17T06:30:18.379Z,46.13
2023-05-17T06:31:21.221Z,45.90
2023-05-17T06:32:25.109Z,46.31
2023-05-17T06:33:27.538Z,46.54
2023-05-17T06:34:30.088Z,46.62
2023-05-17T06:35:40.799Z,46.62
2023-05-17T06:36:40.763Z,46.35
2023-05-17T06:37:49.352Z,46.36
2023-05-17T06:38:47.870Z,46.51
2023-05-17T06:40:00.125Z,45.95
2023-05-17T06:40:58.491Z,45.72
2023-05-17T06:42:01.446Z,45.56
2023-05-17T06:43:05.276Z,45.51
2023-05-17T06:44:08.679Z,45.73
2023-05-17T06:45:11.760Z,45.36
2023-05-17T06:46:14.966Z,45.14
2023-05-17T06:47:20.173Z,45.07
2023-05-17T06:48:23.115Z,44.94
2023-05-17T06:49:26.633Z,44.96
2023-05-17T06:50:31.084Z,44.55
2023-05-17T06:51:33.775Z,44.55
2023-05-17T06:52:36.355Z,44.81
2023-05-17T06:53:39.519Z,44.89
2023-05-17T06:54:42.038Z,44.84
2023-05-17T06:55:44.600Z,45.33
2023-05-17T06:56:47.332Z,45.15
2023-05-17T06:57:50.623Z,44.69
2023-05-17T06:58:53.482Z,44.47
2023-05-17T06:59:56.122Z,44.50
2023-05-17T07:00:58.864Z,44.25
2023-05-17T07:02:01.327Z,44.23
2023-05-17T07:03:03.849Z,43.88
2023-05-17T07:04:08.500Z,44.03
2023-05-17T07:05:10.852Z,43.75
2023-05-17T07:06:13.760Z,43.75
2023-05-17T07:07:16.286Z,44.12
2023-05-17T07:08:18.864Z,43.82
2023-05-17T07:09:21.667Z,43.82
2023-05-17T07:10:24.062Z,44.32
2023-05-17T07:11:27.515Z,43.61
2023-05-17T07:12:30.060Z,43.47
2023-05-17T07:13:33.473Z,43.13
2023-05-17T07:14:37.056Z,42.57
2023-05-17T07:15:40.962Z,42.70
2023-05-17T07:16:43.715Z,43.15
2023-05-17T07:17:46.696Z,42.80
2023-05-17T07:18:49.358Z,43.18
2023-05-17T07:19:51.951Z,42.16
2023-05-17T07:20:55.934Z,42.11
2023-05-17T07:21:58.546Z,42.25
2023-05-17T07:23:00.951Z,42.23
2023-05-17T07:24:03.716Z,42.23
2023-05-17T07:25:08.067Z,41.43
2023-05-17T07:26:11.119Z,41.04
2023-05-17T07:27:13.750Z,40.92
2023-05-17T07:28:16.271Z,40.45
2023-05-17T07:29:19.650Z,40.21
2023-05-17T07:30:22.217Z,40.15
2023-05-17T07:31:25.103Z,40.22
2023-05-17T07:32:27.571Z,40.21
2023-05-17T07:33:30.486Z,39.74
2023-05-17T07:34:33.028Z,39.53
2023-05-17T07:35:37.809Z,39.40
2023-05-17T07:36:40.325Z,39.74
2023-05-17T07:37:42.858Z,38.95
2023-05-17T07:38:45.488Z,39.02
2023-05-17T07:39:49.256Z,38.17
2023-05-17T07:40:52.425Z,38.53
2023-05-17T07:41:55.655Z,38.47
2023-05-17T07:42:58.282Z,38.34
2023-05-17T07:44:00.869Z,38.02
2023-05-17T07:45:03.821Z,37.68
2023-05-17T07:46:06.708Z,38.17
2023-05-17T07:47:09.377Z,38.04
2023-05-17T07:48:11.934Z,38.60
2023-05-17T07:49:16.479Z,38.60
2023-05-17T07:50:19.135Z,37.61
2023-05-17T07:51:21.407Z,37.37
2023-05-17T07:52:23.934Z,37.03
2023-05-17T07:53:26.409Z,36.82
2023-05-17T07:54:29.311Z,37.40
2023-05-17T07:55:32.260Z,37.25
2023-05-17T07:56:36.134Z,37.01
2023-05-17T07:57:38.841Z,37.29
2023-05-17T07:58:42.217Z,40.45
2023-05-17T07:59:45.091Z,40.83
2023-05-17T08:00:49.099Z,38.33
2023-05-17T08:01:52.142Z,38.02
2023-05-17T08:02:57.191Z,39.46
2023-05-17T08:03:59.893Z,41.04
2023-05-17T08:05:02.732Z,37.72
2023-05-17T08:06:05.482Z,37.76
2023-05-17T08:07:08.024Z,39.46
2023-05-17T08:08:10.580Z,38.57
2023-05-17T08:09:13.165Z,37.49
2023-05-17T08:10:16.152Z,36.70
2023-05-17T08:11:19.706Z,39.66
2023-05-17T08:12:23.228Z,38.94
2023-05-17T08:13:29.346Z,39.89
2023-05-17T08:14:31.766Z,38.08
2023-05-17T08:15:34.241Z,37.82
2023-05-17T08:16:37.145Z,38.19
2023-05-17T08:17:40.100Z,37.37
2023-05-17T08:18:43.849Z,39.61
2023-05-17T08:19:47.806Z,36.84
2023-05-17T08:20:50.833Z,39.33
2023-05-17T08:21:55.482Z,37.67
2023-05-17T08:22:58.017Z,36.45
2023-05-17T08:24:02.157Z,38.15
2023-05-17T08:25:06.570Z,38.28
2023-05-17T08:26:09.496Z,39.62
2023-05-17T08:27:12.138Z,38.70
2023-05-17T08:28:14.978Z,36.13
2023-05-17T08:29:17.302Z,38.11
2023-05-17T08:30:28.975Z,37.69
2023-05-17T08:31:24.552Z,37.56
2023-05-17T08:32:29.935Z,38.38
2023-05-17T08:33:32.841Z,37.20
2023-05-17T08:34:36.213Z,38.64
2023-05-17T08:35:38.820Z,38.41
2023-05-17T08:36:42.308Z,38.94
2023-05-17T08:37:45.636Z,34.83
2023-05-17T08:38:49.305Z,37.63
2023-05-17T08:39:52.108Z,36.33
2023-05-17T08:40:55.064Z,38.71
2023-05-17T08:41:59.017Z,38.71
2023-05-17T08:43:02.722Z,37.19
2023-05-17T08:44:05.866Z,36.67
2023-05-17T08:45:10.118Z,37.38
2023-05-17T08:46:15.434Z,38.71
2023-05-17T08:47:28.065Z,38.06
2023-05-17T08:48:31.678Z,37.57
2023-05-17T08:49:37.896Z,36.80
2023-05-17T08:50:41.151Z,37.08
2023-05-17T08:51:46.883Z,37.30
2023-05-17T08:52:49.788Z,36.89
2023-05-17T08:53:52.835Z,36.42
2023-05-17T08:54:55.815Z,35.90
2023-05-17T08:56:00.974Z,35.80
2023-05-17T08:57:06.781Z,35.74
2023-05-17T08:58:11.743Z,36.75
2023-05-17T08:59:15.094Z,38.31
2023-05-17T09:00:21.331Z,38.15
2023-05-17T09:01:25.997Z,37.09
2023-05-17T09:02:31.016Z,37.01
2023-05-17T09:03:35.288Z,37.16
2023-05-17T09:04:38.979Z,37.16
2023-05-17T09:05:43.251Z,36.12
2023-05-17T09:06:46.584Z,37.19
2023-05-17T09:07:49.325Z,37.27
2023-05-17T09:08:54.038Z,37.59
2023-05-17T09:09:57.952Z,33.66
2023-05-17T09:11:00.514Z,34.87
2023-05-17T09:12:03.958Z,34.92
2023-05-17T09:13:07.116Z,35.32
2023-05-17T09:14:10.174Z,36.75
2023-05-17T09:15:16.716Z,35.02
2023-05-17T09:16:21.381Z,34.40
2023-05-17T09:17:24.472Z,33.59
2023-05-17T09:18:32.923Z,35.73
2023-05-17T09:19:39.302Z,33.93
2023-05-17T09:20:42.202Z,35.39
2023-05-17T09:21:48.525Z,33.79
2023-05-17T09:22:52.936Z,33.79
2023-05-17T09:24:05.306Z,32.06
2023-05-17T09:25:02.496Z,34.00
2023-05-17T09:26:08.258Z,34.02
2023-05-17T09:27:20.052Z,34.78
2023-05-17T09:28:23.106Z,34.36
2023-05-17T09:29:26.657Z,34.16
2023-05-17T09:30:32.817Z,34.79
2023-05-17T09:31:35.651Z,35.00
2023-05-17T09:32:44.365Z,33.96
2023-05-17T09:33:49.599Z,34.08
2023-05-17T09:34:52.202Z,33.24
2023-05-17T09:35:55.476Z,33.42
2023-05-17T09:36:58.135Z,34.56
2023-05-17T09:38:08.910Z,33.35
2023-05-17T09:39:14.237Z,34.87
2023-05-17T09:40:26.376Z,34.27
2023-05-17T09:41:44.988Z,33.74
2023-05-17T09:42:49.309Z,33.19
2023-05-17T09:43:52.113Z,32.63
2023-05-17T09:44:57.586Z,31.83
2023-05-17T09:46:00.096Z,33.91
2023-05-17T09:47:03.668Z,34.16
2023-05-17T09:48:17.184Z,33.50
2023-05-17T09:49:19.745Z,34.23
2023-05-17T09:50:25.379Z,34.08
2023-05-17T09:51:35.354Z,33.91
2023-05-17T09:52:40.571Z,33.31
2023-05-17T09:53:43.155Z,33.75
2023-05-17T09:54:55.236Z,34.18
2023-05-17T09:56:03.726Z,31.59
2023-05-17T09:57:08.433Z,34.36
2023-05-17T09:58:11.597Z,33.86
2023-05-17T09:59:15.577Z,33.11
2023-05-17T10:00:21.516Z,33.03
2023-05-17T10:01:27.355Z,34.54
2023-05-17T10:02:35.438Z,33.08
2023-05-17T10:03:39.652Z,33.33
2023-05-17T10:04:44.590Z,34.53
2023-05-17T10:05:50.939Z,34.66
2023-05-17T10:06:54.429Z,35.28
2023-05-17T10:07:57.143Z,34.60
2023-05-17T10:09:02.010Z,36.29
2023-05-17T10:10:06.629Z,35.80
2023-05-17T10:11:10.873Z,33.44
2023-05-17T10:12:23.709Z,34.04
2023-05-17T10:13:30.140Z,35.61
2023-05-17T10:14:35.398Z,35.41
2023-05-17T10:15:39.904Z,34.92
2023-05-17T10:16:43.150Z,35.08
2023-05-17T10:17:46.011Z,35.13
2023-05-17T10:18:49.694Z,34.84
2023-05-17T10:19:53.259Z,35.97
2023-05-17T10:20:57.794Z,35.79
2023-05-17T10:22:11.506Z,34.91
2023-05-17T10:23:07.623Z,36.20
2023-05-17T10:24:11.797Z,35.09
2023-05-17T10:25:15.075Z,34.63
2023-05-17T10:26:18.458Z,34.92
2023-05-17T10:27:22.492Z,34.51
2023-05-17T10:28:26.803Z,35.86
2023-05-17T10:29:34.211Z,35.36
2023-05-17T10:30:39.301Z,35.67
2023-05-17T10:31:45.898Z,34.37
2023-05-17T10:32:51.386Z,33.96
2023-05-17T10:33:54.612Z,34.47
2023-05-17T10:35:10.351Z,33.41
2023-05-17T10:36:07.970Z,33.75
2023-05-17T10:37:13.574Z,34.34
2023-05-17T10:38:17.688Z,33.84
2023-05-17T10:39:22.875Z,33.19
2023-05-17T10:40:25.389Z,33.84
2023-05-17T10:41:31.695Z,34.76
2023-05-17T10:42:36.015Z,33.12
2023-05-17T10:43:41.288Z,33.03
2023-05-17T10:44:44.032Z,33.61
2023-05-17T10:45:46.601Z,33.88
2023-05-17T10:46:54.825Z,34.05
2023-05-17T10:48:01.285Z,33.27
2023-05-17T10:49:04.040Z,33.27
2023-05-17T10:50:15.770Z,33.71
2023-05-17T10:51:26.835Z,33.51
2023-05-17T10:52:30.598Z,34.26
2023-05-17T10:53:33.322Z,34.38
2023-05-17T10:54:38.699Z,34.40
2023-05-17T10:55:44.230Z,33.69
2023-05-17T10:56:53.676Z,34.33
2023-05-17T10:58:12.877Z,33.82
2023-05-17T10:59:24.686Z,33.65
2023-05-17T11:00:29.983Z,33.29
2023-05-17T11:02:04.198Z,33.57
2023-05-17T11:03:21.226Z,34.13
2023-05-17T11:04:35.683Z,32.83
2023-05-17T11:05:43.024Z,33.50
2023-05-17T11:06:45.757Z,33.62
2023-05-17T11:07:48.308Z,34.15
2023-05-17T11:09:08.988Z,32.99
2023-05-17T11:10:13.410Z,32.07
2023-05-17T11:11:20.616Z,32.22
2023-05-17T11:12:41.260Z,32.49
2023-05-17T11:13:55.730Z,34.13
2023-05-17T11:14:58.624Z,33.51
2023-05-17T11:16:07.956Z,32.84
2023-05-17T11:17:17.560Z,32.49
2023-05-17T11:18:30.491Z,33.82
2023-05-17T11:19:25.953Z,32.84
2023-05-17T11:20:32.272Z,33.64
2023-05-17T11:21:35.463Z,33.50
2023-05-17T11:23:57.014Z,31.82
2023-05-17T11:25:01.515Z,32.21
2023-05-17T11:26:25.946Z,32.18
2023-05-17T11:27:32.927Z,32.52
2023-05-17T11:28:37.945Z,33.83
2023-05-17T11:29:41.862Z,32.48
2023-05-17T11:30:46.754Z,32.72
2023-05-17T11:31:51.577Z,33.31
2023-05-17T11:33:03.024Z,34.18
2023-05-17T11:34:07.308Z,31.84
2023-05-17T11:35:12.678Z,34.99
2023-05-17T11:36:18.937Z,33.85
2023-05-17T11:37:29.121Z,34.01
2023-05-17T11:38:32.298Z,31.26
2023-05-17T11:39:35.032Z,31.93
2023-05-17T11:40:38.812Z,30.94
2023-05-17T11:41:51.030Z,31.06
2023-05-17T11:43:13.573Z,31.66
2023-05-17T11:47:07.093Z,29.45
2023-05-17T11:48:13.625Z,29.31
2023-05-17T11:49:26.989Z,29.27
2023-05-17T11:51:44.841Z,30.59
2023-05-17T11:52:48.034Z,27.54
2023-05-17T11:53:51.339Z,28.98
2023-05-17T11:54:56.274Z,29.72
2023-05-17T11:56:02.515Z,28.04
2023-05-17T11:57:06.562Z,28.71
2023-05-17T11:58:14.549Z,28.53
2023-05-17T11:59:20.985Z,29.56
2023-05-17T12:00:28.385Z,30.17
2023-05-17T12:01:45.525Z,31.24
2023-05-17T12:02:47.998Z,28.38
2023-05-17T12:03:55.965Z,28.57
2023-05-17T12:04:59.113Z,29.40
2023-05-17T12:06:07.547Z,30.84
2023-05-17T12:07:11.484Z,29.26
2023-05-17T12:08:18.064Z,31.68
2023-05-17T12:09:22.491Z,28.44
2023-05-17T12:10:25.426Z,29.33
2023-05-17T12:11:28.613Z,28.02
2023-05-17T12:12:33.071Z,28.03
2023-05-17T12:13:35.558Z,28.28
2023-05-17T12:14:37.927Z,29.40
2023-05-17T12:15:42.824Z,29.17
2023-05-17T12:16:48.847Z,28.08
2023-05-17T12:17:53.370Z,29.24
2023-05-17T12:18:57.822Z,27.87
2023-05-17T12:20:09.088Z,28.32
2023-05-17T12:21:14.323Z,26.86
2023-05-17T12:22:17.142Z,28.89
2023-05-17T12:23:26.411Z,28.73
2023-05-17T12:24:32.301Z,29.44
2023-05-17T12:25:34.693Z,27.14
2023-05-17T12:26:45.427Z,27.12
2023-05-17T12:27:47.861Z,28.84
2023-05-17T12:28:55.983Z,28.11
2023-05-17T12:29:59.346Z,30.00
2023-05-17T12:31:03.348Z,28.96
2023-05-17T12:32:09.106Z,29.73
2023-05-17T12:33:12.120Z,27.95
2023-05-17T12:34:16.331Z,28.38
2023-05-17T12:35:18.829Z,28.35
2023-05-17T12:36:22.084Z,27.83
2023-05-17T12:37:24.321Z,29.40
2023-05-17T12:38:32.346Z,29.98
2023-05-17T12:39:35.159Z,27.28
2023-05-17T12:40:43.272Z,27.22
2023-05-17T12:41:46.955Z,26.74
2023-05-17T12:42:49.265Z,27.69
2023-05-17T12:43:55.002Z,27.09
2023-05-17T12:44:56.200Z,27.15
2023-05-17T12:46:10.997Z,28.01
2023-05-17T12:47:13.320Z,30.26
2023-05-17T12:48:15.779Z,29.53
2023-05-17T12:49:20.391Z,28.46
2023-05-17T12:50:31.874Z,28.46
2023-05-17T12:51:43.168Z,29.01
2023-05-17T12:52:47.256Z,29.47
2023-05-17T12:53:56.748Z,31.20
2023-05-17T12:55:00.431Z,29.27
2023-05-17T12:56:04.759Z,32.00
2023-05-17T12:57:15.340Z,32.12
2023-05-17T12:58:17.647Z,31.46
2023-05-17T12:59:24.708Z,28.98
2023-05-17T13:00:29.794Z,30.32
2023-05-17T13:01:34.524Z,29.16
2023-05-17T13:02:39.848Z,32.30
2023-05-17T13:03:47.114Z,29.76
2023-05-17T13:04:51.725Z,31.79
2023-05-17T13:06:04.598Z,29.03
2023-05-17T13:07:07.555Z,31.88
2023-05-17T13:08:22.130Z,32.71
2023-05-17T13:09:27.357Z,32.86
2023-05-17T13:10:30.967Z,31.46
2023-05-17T13:11:43.172Z,31.25
2023-05-17T13:12:58.747Z,30.85
2023-05-17T13:14:01.168Z,31.18
2023-05-17T13:15:06.829Z,30.64
2023-05-17T13:16:10.043Z,31.26
2023-05-17T13:17:27.658Z,31.57
2023-05-17T13:18:30.623Z,30.33
2023-05-17T13:19:35.305Z,30.53
2023-05-17T13:20:37.876Z,31.45
2023-05-17T13:21:41.404Z,30.86
2023-05-17T13:22:47.159Z,30.42
2023-05-17T13:23:50.085Z,29.79
2023-05-17T13:24:52.770Z,32.05
2023-05-17T13:25:55.478Z,29.83
2023-05-17T13:26:57.902Z,30.74
2023-05-17T13:28:01.868Z,30.43
2023-05-17T13:29:04.467Z,29.26
2023-05-17T13:30:09.260Z,31.87
2023-05-17T13:31:12.155Z,29.75
2023-05-17T13:32:14.835Z,28.92
2023-05-17T13:33:18.467Z,31.00
2023-05-17T13:34:21.142Z,30.19
2023-05-17T13:35:23.487Z,29.97
2023-05-17T13:36:26.804Z,29.97
2023-05-17T13:37:29.252Z,28.60
2023-05-17T13:38:32.039Z,29.88
2023-05-17T13:39:34.366Z,31.55
2023-05-17T13:40:37.480Z,31.88
2023-05-17T13:41:41.283Z,31.07
2023-05-17T13:42:44.072Z,30.87
2023-05-17T13:43:46.818Z,31.37
2023-05-17T13:44:49.454Z,28.03
2023-05-17T13:45:53.520Z,32.65
2023-05-17T13:46:56.193Z,33.16
2023-05-17T13:47:59.102Z,29.78
2023-05-17T13:49:08.071Z,29.70
2023-05-17T13:50:11.503Z,28.83
2023-05-17T13:51:14.186Z,30.53
2023-05-17T13:52:17.945Z,32.07
2023-05-17T13:53:21.420Z,33.77
2023-05-17T13:54:23.838Z,30.00
2023-05-17T13:55:26.179Z,31.09
2023-05-17T13:56:29.626Z,29.65
2023-05-17T13:57:32.401Z,29.43
2023-05-17T13:58:34.558Z,31.31
2023-05-17T13:59:37.209Z,30.97